Time;durP1;ratioP1;P1;durP2;ratioP2;P2;SDS_P1;SDS_P2;PMS_P1;PMS_P2;Temp;Humidity;BMP_temperature;BMP_pressure;BME280_temperature;BME280_humidity;BME280_pressure;Samples;Min_cycle;Max_cycle;Signal;HPM_P1;HPM_P2
2021/03/04 00:02:48;;;;;;;33.55;16.15;;;3.40;99.90;;;;;;8358250;28;20100;-66
2021/03/04 00:06:49;;;;;;;35.75;16.92;;;3.50;99.90;;;;;;8341116;28;20307;-67
2021/03/04 00:10:49;;;;;;;28.58;14.93;;;3.50;99.90;;;;;;8361568;28;20057;-66
2021/03/04 00:14:50;;;;;;;29.27;14.50;;;3.50;99.90;;;;;;8365304;28;20032;-66
2021/03/04 00:18:50;;;;;;;27.65;14.18;;;3.50;99.90;;;;;;8365284;28;20029;-67
2021/03/04 00:22:51;;;;;;;25.08;13.02;;;3.50;99.90;;;;;;8365347;28;20041;-66
2021/03/04 00:26:52;;;;;;;25.15;13.10;;;3.60;99.90;;;;;;8364822;28;20095;-67
2021/03/04 00:30:52;;;;;;;27.05;13.38;;;3.60;99.90;;;;;;8363825;28;20036;-67
2021/03/04 00:34:53;;;;;;;27.10;13.15;;;3.50;99.90;;;;;;8364133;28;20379;-66
2021/03/04 00:38:53;;;;;;;29.13;13.27;;;3.60;99.90;;;;;;8346906;28;20144;-67
2021/03/04 00:42:54;;;;;;;31.15;13.18;;;3.70;99.90;;;;;;8364594;28;20033;-67
2021/03/04 00:46:54;;;;;;;24.83;13.35;;;3.60;99.90;;;;;;8364695;28;20495;-67
2021/03/04 00:50:55;;;;;;;24.50;13.43;;;3.60;99.90;;;;;;8364374;28;20082;-66
2021/03/04 00:54:55;;;;;;;26.05;13.13;;;3.60;99.90;;;;;;8364188;28;20033;-66
2021/03/04 00:58:56;;;;;;;27.55;12.93;;;3.60;99.90;;;;;;8363205;28;20426;-67
2021/03/04 01:02:57;;;;;;;22.70;12.82;;;3.70;99.90;;;;;;8362977;28;20100;-67
2021/03/04 01:06:57;;;;;;;22.40;12.13;;;3.70;99.90;;;;;;8363175;28;20514;-67
2021/03/04 01:10:58;;;;;;;22.85;11.95;;;3.80;99.90;;;;;;8362328;28;20033;-67
2021/03/04 01:14:59;;;;;;;25.52;12.70;;;3.80;99.90;;;;;;8362618;28;20021;-67
2021/03/04 01:18:59;;;;;;;24.55;12.60;;;3.80;99.90;;;;;;8361694;28;20037;-68
2021/03/04 01:23:00;;;;;;;22.00;12.43;;;3.80;99.90;;;;;;8360813;28;20044;-67
2021/03/04 01:27:01;;;;;;;22.73;11.40;;;3.70;99.90;;;;;;8362750;28;20036;-67
2021/03/04 01:31:01;;;;;;;25.70;12.07;;;3.80;99.90;;;;;;8361941;28;20033;-66
2021/03/04 01:35:02;;;;;;;26.20;11.90;;;3.80;99.90;;;;;;8362276;28;20096;-67
2021/03/04 01:39:05;;;;;;;24.95;12.30;;;3.80;99.90;;;;;;8362787;28;20048;-67
2021/03/04 01:43:06;;;;;;;24.13;12.80;;;3.90;99.90;;;;;;8362684;28;20069;-66
2021/03/04 01:47:07;;;;;;;22.95;12.60;;;4.10;99.90;;;;;;8344854;28;20503;-66
2021/03/04 01:51:08;;;;;;;27.50;12.93;;;4.10;99.90;;;;;;8361191;28;20032;-67
2021/03/04 01:55:09;;;;;;;28.50;12.88;;;4.00;99.90;;;;;;8360566;28;20052;-67
2021/03/04 01:59:10;;;;;;;30.83;13.43;;;4.30;99.90;;;;;;8360770;28;20098;-67
2021/03/04 02:03:21;;;;;;;23.38;12.68;;;4.30;99.90;;;;;;8360419;28;20053;-67
2021/03/04 02:08:01;;;;;;;24.02;13.43;;;4.30;99.90;;;;;;8361958;28;20025;-66
2021/03/04 02:12:20;;;;;;;24.30;12.90;;;4.40;99.90;;;;;;8361646;28;20021;-66
2021/03/04 02:16:41;;;;;;;27.85;13.93;;;4.50;99.90;;;;;;8344039;28;20381;-67
2021/03/04 02:21:17;;;;;;;26.90;13.35;;;4.40;99.90;;;;;;8359860;28;20025;-67
2021/03/04 02:25:22;;;;;;;30.88;13.70;;;4.50;99.90;;;;;;8341817;28;20390;-67
2021/03/04 02:29:24;;;;;;;27.80;13.45;;;4.50;99.90;;;;;;8325982;28;20056;-66
2021/03/04 02:33:28;;;;;;;24.35;12.57;;;4.40;99.90;;;;;;8325772;28;20107;-67
2021/03/04 02:37:33;;;;;;;21.95;11.75;;;4.10;99.90;;;;;;8328069;28;20805;-67
2021/03/04 02:41:38;;;;;;;27.23;13.80;;;4.10;99.90;;;;;;8327892;28;20044;-67
2021/03/04 02:45:42;;;;;;;26.45;13.65;;;4.20;99.90;;;;;;8328013;28;20032;-67
2021/03/04 02:49:44;;;;;;;30.58;14.98;;;4.10;99.90;;;;;;8310017;28;20029;-67
2021/03/04 02:53:45;;;;;;;28.00;14.38;;;4.20;99.90;;;;;;8327735;28;20037;-67
2021/03/04 02:57:47;;;;;;;29.25;14.85;;;4.30;99.90;;;;;;8350320;28;20392;-67
2021/03/04 03:01:48;;;;;;;31.67;15.10;;;4.70;99.90;;;;;;8355343;28;20025;-67
2021/03/04 03:05:50;;;;;;;32.63;15.05;;;4.80;99.90;;;;;;8358592;28;20055;-66
2021/03/04 03:09:50;;;;;;;30.65;14.80;;;5.10;99.90;;;;;;8358344;28;20564;-66
2021/03/04 03:13:54;;;;;;;30.70;15.65;;;5.30;99.90;;;;;;8340542;28;20078;-66
2021/03/04 03:17:54;;;;;;;32.53;14.90;;;5.20;99.90;;;;;;8358898;28;20013;-67
2021/03/04 03:21:55;;;;;;;30.38;15.07;;;5.40;99.90;;;;;;8358661;28;20618;-66
2021/03/04 03:25:56;;;;;;;36.35;14.85;;;5.60;99.90;;;;;;8359215;28;20063;-67
2021/03/04 03:29:57;;;;;;;30.58;15.27;;;5.50;99.90;;;;;;8358520;28;20056;-66
2021/03/04 03:33:58;;;;;;;30.20;15.65;;;5.40;99.90;;;;;;8341022;28;20067;-66
2021/03/04 03:38:01;;;;;;;34.05;15.77;;;5.60;99.90;;;;;;8359652;28;20028;-67
2021/03/04 03:42:03;;;;;;;33.08;15.00;;;5.60;99.90;;;;;;8359393;28;20029;-66
2021/03/04 03:46:04;;;;;;;30.02;16.13;;;5.60;99.90;;;;;;8362522;28;20403;-66
2021/03/04 03:50:06;;;;;;;31.45;15.82;;;5.60;99.90;;;;;;8348259;28;20044;-67
2021/03/04 03:54:08;;;;;;;32.97;15.75;;;5.60;99.90;;;;;;8348295;28;20104;-66
2021/03/04 03:58:09;;;;;;;34.65;16.55;;;5.70;99.90;;;;;;8347534;28;20112;-66
2021/03/04 04:02:09;;;;;;;33.20;17.05;;;5.70;99.90;;;;;;8364731;28;20113;-66
2021/03/04 04:06:10;;;;;;;36.55;17.25;;;5.50;99.90;;;;;;8365371;28;20033;-66
2021/03/04 04:10:12;;;;;;;34.78;17.17;;;5.30;99.90;;;;;;8365608;28;20037;-67
2021/03/04 04:14:12;;;;;;;34.22;17.70;;;5.30;99.90;;;;;;8365326;28;20024;-67
2021/03/04 04:18:13;;;;;;;33.03;17.02;;;5.40;99.90;;;;;;8365644;28;20029;-67
2021/03/04 04:22:14;;;;;;;33.40;17.05;;;5.60;99.90;;;;;;8365204;28;20048;-67
2021/03/04 04:26:16;;;;;;;33.10;17.88;;;5.60;99.90;;;;;;8347390;28;20106;-67
2021/03/04 04:30:18;;;;;;;30.98;16.20;;;5.50;99.90;;;;;;8363915;28;20036;-66
2021/03/04 04:34:18;;;;;;;36.63;16.90;;;5.50;99.90;;;;;;8364019;28;20025;-67
2021/03/04 04:38:19;;;;;;;34.25;17.05;;;5.50;99.90;;;;;;8364928;28;20033;-66
2021/03/04 04:42:20;;;;;;;32.92;16.25;;;5.40;99.90;;;;;;8364628;28;20025;-66
2021/03/04 04:46:20;;;;;;;34.35;16.70;;;5.60;99.90;;;;;;8364456;28;20056;-67
2021/03/04 04:50:21;;;;;;;37.25;18.25;;;5.70;99.90;;;;;;8344398;28;20407;-66
2021/03/04 04:54:21;;;;;;;42.10;20.65;;;5.60;99.90;;;;;;8390528;23;20049;-68
2021/03/04 04:58:22;;;;;;;38.65;19.45;;;5.70;99.90;;;;;;8345072;28;20472;-69
2021/03/04 05:02:22;;;;;;;40.25;20.00;;;5.40;99.90;;;;;;8347199;28;20056;-68
2021/03/04 05:06:23;;;;;;;40.03;19.75;;;5.20;99.90;;;;;;8359463;28;20041;-68
2021/03/04 05:10:24;;;;;;;47.92;22.05;;;5.40;99.90;;;;;;8365694;28;20497;-68
2021/03/04 05:14:24;;;;;;;49.05;22.42;;;5.30;99.90;;;;;;8372476;28;20027;-68
2021/03/04 05:18:25;;;;;;;51.15;24.23;;;5.20;99.90;;;;;;8360692;28;20017;-68
2021/03/04 05:22:25;;;;;;;44.60;21.70;;;5.10;99.90;;;;;;8328665;28;20701;-68
2021/03/04 05:26:26;;;;;;;48.70;21.55;;;5.20;99.90;;;;;;8342172;28;20112;-68
2021/03/04 05:30:27;;;;;;;52.50;22.10;;;5.50;99.90;;;;;;8362634;28;20024;-70
2021/03/04 05:34:27;;;;;;;44.17;20.13;;;5.70;99.90;;;;;;8368372;28;20041;-68
2021/03/04 05:38:28;;;;;;;41.13;19.02;;;5.40;99.90;;;;;;8364612;28;20025;-68
2021/03/04 05:42:31;;;;;;;41.97;20.08;;;5.30;99.90;;;;;;8351243;28;20495;-66
2021/03/04 05:46:34;;;;;;;40.30;20.00;;;5.10;99.90;;;;;;8368219;28;20024;-66
2021/03/04 05:50:41;;;;;;;41.25;20.00;;;5.00;99.90;;;;;;8345455;28;20053;-68
2021/03/04 05:54:44;;;;;;;43.85;20.88;;;4.90;99.90;;;;;;8370969;28;20032;-69
2021/03/04 05:58:46;;;;;;;46.63;21.52;;;4.90;99.90;;;;;;8360873;28;20029;-68
2021/03/04 06:02:47;;;;;;;47.03;21.23;;;5.30;99.90;;;;;;8356283;28;20082;-68
2021/03/04 06:06:47;;;;;;;42.95;20.63;;;5.10;99.90;;;;;;8358588;28;20091;-68
2021/03/04 06:10:50;;;;;;;40.75;19.08;;;5.00;99.90;;;;;;8359176;28;20399;-69
2021/03/04 06:14:51;;;;;;;42.97;19.65;;;4.80;99.90;;;;;;8357001;28;20071;-68
2021/03/04 06:18:51;;;;;;;39.45;19.00;;;5.10;99.90;;;;;;8359730;28;20024;-68
2021/03/04 06:22:52;;;;;;;42.58;19.95;;;5.00;99.90;;;;;;8357532;28;20029;-68
2021/03/04 06:26:54;;;;;;;41.42;19.80;;;5.10;99.90;;;;;;8356997;28;20055;-68
2021/03/04 06:30:55;;;;;;;42.88;20.92;;;5.00;99.90;;;;;;8358390;28;20029;-69
2021/03/04 06:35:13;;;;;;;41.65;19.45;;;4.80;99.90;;;;;;8358824;28;20035;-69
2021/03/04 06:39:14;;;;;;;37.30;19.38;;;4.80;99.90;;;;;;8357272;28;20049;-68
2021/03/04 06:43:26;;;;;;;32.42;15.55;;;5.00;99.90;;;;;;8356320;28;20029;-68
2021/03/04 06:47:28;;;;;;;33.13;16.60;;;5.10;99.90;;;;;;8355560;28;20025;-68
2021/03/04 06:51:32;;;;;;;29.65;15.00;;;5.50;99.90;;;;;;8356456;28;20029;-68
2021/03/04 06:55:33;;;;;;;31.52;14.80;;;6.10;99.90;;;;;;8355718;28;20033;-68
2021/03/04 06:59:44;;;;;;;32.58;14.65;;;6.30;99.90;;;;;;8355102;28;20043;-68
2021/03/04 07:03:47;;;;;;;32.70;14.98;;;6.60;99.90;;;;;;8356726;28;20017;-68
2021/03/04 07:07:51;;;;;;;33.58;14.23;;;6.90;99.90;;;;;;8359097;28;20025;-68
2021/03/04 07:11:54;;;;;;;33.63;13.98;;;7.00;99.90;;;;;;8357683;28;20395;-68
2021/03/04 07:15:55;;;;;;;29.42;14.00;;;7.30;99.90;;;;;;8357628;28;20097;-68
2021/03/04 07:20:02;;;;;;;22.77;10.43;;;7.40;99.90;;;;;;8357229;28;20078;-68
2021/03/04 07:24:04;;;;;;;27.15;13.32;;;7.60;99.90;;;;;;8358935;28;20494;-68
2021/03/04 07:28:06;;;;;;;22.50;11.68;;;7.60;99.90;;;;;;8358337;28;20391;-68
2021/03/04 07:32:07;;;;;;;23.92;10.57;;;7.60;99.90;;;;;;8359257;28;20029;-68
2021/03/04 07:36:10;;;;;;;26.15;12.82;;;7.80;99.90;;;;;;8359183;28;20440;-68
2021/03/04 07:40:14;;;;;;;24.73;12.93;;;7.80;99.90;;;;;;8358136;28;20029;-68
2021/03/04 07:44:30;;;;;;;28.67;13.25;;;7.90;99.90;;;;;;8358184;28;20456;-68
2021/03/04 07:48:30;;;;;;;25.35;12.43;;;8.10;99.90;;;;;;8358777;28;20043;-68
2021/03/04 07:52:31;;;;;;;28.27;12.05;;;8.20;99.90;;;;;;8356363;28;20086;-68
2021/03/04 07:56:32;;;;;;;23.70;12.40;;;8.20;99.90;;;;;;8357490;28;20446;-68
2021/03/04 08:00:34;;;;;;;20.40;10.27;;;8.30;99.90;;;;;;8358083;28;20043;-68
2021/03/04 08:04:35;;;;;;;23.90;11.55;;;8.20;99.90;;;;;;8357475;28;20025;-68
2021/03/04 08:08:38;;;;;;;13.25;6.70;;;8.20;99.90;;;;;;8358578;28;20032;-68
2021/03/04 08:12:51;;;;;;;14.55;6.82;;;8.10;99.90;;;;;;8357986;28;20098;-68
2021/03/04 08:16:55;;;;;;;20.67;10.32;;;8.10;99.90;;;;;;8362054;28;20021;-68
2021/03/04 08:21:03;;;;;;;23.40;11.82;;;8.10;99.90;;;;;;8367785;28;20403;-68
2021/03/04 08:25:05;;;;;;;23.80;11.82;;;8.10;99.90;;;;;;8354784;28;20017;-68
2021/03/04 08:29:11;;;;;;;24.27;11.55;;;8.20;99.90;;;;;;8349572;28;20028;-68
2021/03/04 08:33:13;;;;;;;22.77;11.38;;;8.40;99.90;;;;;;8358257;28;20025;-68
2021/03/04 08:37:24;;;;;;;21.60;10.57;;;8.40;99.90;;;;;;8364745;28;20092;-68
2021/03/04 08:41:24;;;;;;;21.92;11.15;;;8.70;99.90;;;;;;8363988;28;20499;-68
2021/03/04 08:45:32;;;;;;;22.15;10.65;;;8.70;99.90;;;;;;8362599;28;20029;-68
2021/03/04 08:49:32;;;;;;;22.50;10.90;;;9.10;99.90;;;;;;8363873;28;20032;-68
2021/03/04 08:53:34;;;;;;;21.10;10.30;;;9.40;99.90;;;;;;8363973;28;20381;-68
2021/03/04 08:57:35;;;;;;;16.52;9.30;;;9.60;99.90;;;;;;8363600;28;20017;-68
2021/03/04 09:01:35;;;;;;;18.45;8.93;;;9.90;99.90;;;;;;8363934;28;20423;-68
2021/03/04 09:05:37;;;;;;;20.25;10.27;;;9.70;99.90;;;;;;8362257;28;20044;-68
2021/03/04 09:09:38;;;;;;;22.17;10.25;;;9.90;99.90;;;;;;8362807;28;20029;-68
2021/03/04 09:13:38;;;;;;;20.63;10.80;;;10.10;99.90;;;;;;8358909;28;20056;-68
2021/03/04 09:17:44;;;;;;;17.08;9.05;;;10.00;99.90;;;;;;8370765;28;20107;-68
2021/03/04 09:21:44;;;;;;;18.95;9.68;;;9.90;99.90;;;;;;8365876;28;20032;-68
2021/03/04 09:25:46;;;;;;;21.00;10.43;;;9.80;99.90;;;;;;8387599;28;20506;-68
2021/03/04 09:29:46;;;;;;;16.40;9.55;;;9.90;99.90;;;;;;8362417;28;20103;-68
2021/03/04 09:33:56;;;;;;;22.40;11.43;;;10.30;99.90;;;;;;8362102;28;20025;-68
2021/03/04 09:38:07;;;;;;;20.65;10.43;;;10.50;99.90;;;;;;8362562;28;20092;-68
2021/03/04 09:42:09;;;;;;;15.10;8.30;;;11.10;99.90;;;;;;8359908;28;20028;-68
2021/03/04 09:46:10;;;;;;;17.17;10.05;;;11.30;99.90;;;;;;8358390;28;20491;-68
2021/03/04 09:50:23;;;;;;;15.85;8.82;;;11.50;99.90;;;;;;8362047;28;20037;-69
2021/03/04 09:54:28;;;;;;;19.27;9.82;;;11.80;99.90;;;;;;8361583;28;20472;-68
2021/03/04 09:58:29;;;;;;;19.25;10.57;;;11.90;99.60;;;;;;8360138;28;20035;-68
2021/03/04 10:02:38;;;;;;;11.13;6.88;;;12.30;99.90;;;;;;8361257;28;20041;-68
2021/03/04 10:06:39;;;;;;;17.92;10.20;;;12.90;96.80;;;;;;8361811;28;20091;-68
2021/03/04 10:10:40;;;;;;;16.40;8.05;;;12.90;98.00;;;;;;8360904;28;20026;-68
2021/03/04 10:14:49;;;;;;;16.48;8.63;;;13.00;92.00;;;;;;8358142;28;20163;-68
2021/03/04 10:18:50;;;;;;;17.60;7.97;;;13.10;93.10;;;;;;8357765;28;20100;-68
2021/03/04 10:22:50;;;;;;;18.30;9.18;;;13.50;88.20;;;;;;8360092;28;20029;-68
2021/03/04 10:26:52;;;;;;;17.73;9.45;;;12.90;90.30;;;;;;8359602;28;20033;-68
2021/03/04 10:30:53;;;;;;;19.48;8.48;;;13.00;90.90;;;;;;8360965;28;20459;-68
2021/03/04 10:34:53;;;;;;;18.92;9.68;;;13.20;90.30;;;;;;8359525;28;20013;-68
2021/03/04 10:38:54;;;;;;;19.83;10.23;;;13.00;90.50;;;;;;8360932;28;20025;-68
2021/03/04 10:42:54;;;;;;;13.73;7.93;;;12.90;91.30;;;;;;8360385;28;20024;-68
2021/03/04 10:46:55;;;;;;;23.13;11.80;;;13.30;88.50;;;;;;8360786;28;20032;-68
2021/03/04 10:50:55;;;;;;;15.35;8.20;;;13.50;89.60;;;;;;8359192;28;20021;-68
2021/03/04 10:54:56;;;;;;;17.63;8.80;;;13.70;88.00;;;;;;8407486;22;20052;-67
2021/03/04 10:58:56;;;;;;;19.38;9.68;;;13.70;86.90;;;;;;8425559;28;20032;-68
2021/03/04 11:02:57;;;;;;;20.92;9.73;;;14.90;86.70;;;;;;8425911;28;20483;-69
2021/03/04 11:06:58;;;;;;;19.88;10.52;;;15.40;78.20;;;;;;8424868;28;20028;-69
2021/03/04 11:10:58;;;;;;;20.08;10.40;;;15.40;77.70;;;;;;8425164;28;20047;-69
2021/03/04 11:14:59;;;;;;;17.00;8.85;;;14.70;78.70;;;;;;8425183;28;20028;-68
2021/03/04 11:19:00;;;;;;;16.65;9.55;;;14.70;78.60;;;;;;8425748;28;20399;-68
2021/03/04 11:23:00;;;;;;;18.38;10.13;;;15.60;75.00;;;;;;8425592;28;20028;-69
2021/03/04 11:27:01;;;;;;;;;;;17.10;69.60;;;;;;8421608;28;20103;-69
2021/03/04 11:31:01;;;;;;;;;;;18.80;63.60;;;;;;8414402;28;20216;-69
2021/03/04 11:35:02;;;;;;;;;;;18.90;60.60;;;;;;8399315;28;19908;-68
2021/03/04 11:39:03;;;;;;;;;;;17.50;63.50;;;;;;8425225;28;19904;-68
2021/03/04 11:43:03;;;;;;;;;;;17.30;65.30;;;;;;8422395;28;20379;-67
2021/03/04 11:47:04;;;;;;;;;;;17.90;62.10;;;;;;8424462;28;19904;-68
2021/03/04 11:51:05;;;;;;;;;;;17.60;62.20;;;;;;8424431;28;19962;-69
2021/03/04 11:55:05;;;;;;;;;;;17.80;62.20;;;;;;8424784;28;20323;-69
2021/03/04 11:59:06;;;;;;;;;;;18.80;60.20;;;;;;8420893;28;20462;-69
2021/03/04 12:03:06;;;;;;;;;;;19.50;56.40;;;;;;8414485;28;19912;-67
2021/03/04 12:07:07;;;;;;;;;;;19.40;55.90;;;;;;8424057;28;19958;-69
2021/03/04 12:11:07;;;;;;;;;;;18.40;58.50;;;;;;8429739;28;19912;-69
2021/03/04 12:15:08;;;;;;;;;;;19.90;54.90;;;;;;8431582;28;20046;-69
2021/03/04 12:19:09;;;;;;;;;;;21.30;52.00;;;;;;8413565;28;20338;-69
2021/03/04 12:23:09;;;;;;;;;;;21.00;51.90;;;;;;8412326;28;19931;-69
2021/03/04 12:27:10;;;;;;;;;;;20.70;50.30;;;;;;8418032;28;19923;-69
2021/03/04 12:31:10;;;;;;;;;;;20.10;52.10;;;;;;8412574;28;19912;-69
2021/03/04 12:35:11;;;;;;;;;;;19.20;53.40;;;;;;8420264;28;19912;-69
2021/03/04 12:39:12;;;;;;;;;;;19.40;53.60;;;;;;8399968;28;19904;-68
2021/03/04 12:43:13;;;;;;;;;;;18.60;53.80;;;;;;8424119;28;19908;-69
2021/03/04 12:47:13;;;;;;;;;;;20.10;51.90;;;;;;8418083;28;20397;-69
2021/03/04 12:51:14;;;;;;;;;;;20.30;50.10;;;;;;8417834;28;19916;-67
2021/03/04 12:55:14;;;;;;;;;;;18.30;54.40;;;;;;8422158;28;19973;-68
2021/03/04 12:59:15;;;;;;;;;;;16.40;59.30;;;;;;8409577;28;19905;-69
2021/03/04 13:03:16;;;;;;;;;;;15.50;60.40;;;;;;8400596;28;19915;-69
2021/03/04 13:07:16;;;;;;;;;;;15.40;61.60;;;;;;8427173;28;20417;-67
2021/03/04 13:11:17;;;;;;;;;;;15.00;63.10;;;;;;8418063;28;19973;-68
2021/03/04 13:15:18;;;;;;;;;;;16.10;60.40;;;;;;8408597;28;20002;-68
2021/03/04 13:19:18;;;;;;;;;;;;;;;;;;8422204;28;19927;-69
2021/03/04 13:23:19;;;;;;;;;;;17.90;56.30;;;;;;8415963;28;20366;-68
2021/03/04 13:27:20;;;;;;;;;;;17.20;55.70;;;;;;8409781;28;20386;-68
2021/03/04 13:31:21;;;;;;;;;;;15.90;58.90;;;;;;8428341;28;19908;-68
2021/03/04 13:35:22;;;;;;;;;;;18.90;54.40;;;;;;8405854;28;19931;-67
2021/03/04 13:39:23;;;;;;;;;;;20.20;51.20;;;;;;8430728;28;19952;-69
2021/03/04 13:43:25;;;;;;;;;;;18.70;53.70;;;;;;8404235;28;19912;-69
2021/03/04 13:47:26;;;;;;;;;;;17.40;58.20;;;;;;8425347;28;19916;-68
2021/03/04 13:51:26;;;;;;;;;;;16.60;59.40;;;;;;8390961;28;19940;-68
2021/03/04 13:55:27;;;;;;;;;;;15.50;63.40;;;;;;8418730;28;19916;-68
2021/03/04 13:59:27;;;;;;;;;;;15.10;65.90;;;;;;8426103;28;19908;-68
2021/03/04 14:03:28;;;;;;;;;;;14.60;66.00;;;;;;8427406;28;19908;-68
2021/03/04 14:07:28;;;;;;;;;;;14.40;68.00;;;;;;8423494;28;19912;-68
2021/03/04 14:11:29;;;;;;;;;;;16.00;66.10;;;;;;8419432;28;19918;-67
2021/03/04 14:15:30;;;;;;;;;;;18.70;59.20;;;;;;8422095;28;19908;-68
2021/03/04 14:19:30;;;;;;;;;;;20.60;53.30;;;;;;8421989;28;19908;-69
2021/03/04 14:23:31;;;;;;;;;;;22.10;49.70;;;;;;8392648;28;19904;-69
2021/03/04 14:27:31;;;;;;;;;;;19.20;53.40;;;;;;8417831;28;19908;-68
2021/03/04 14:31:32;;;;;;;;;;;17.80;56.70;;;;;;8408015;28;20480;-68
2021/03/04 14:35:33;;;;;;;;;;;17.30;58.50;;;;;;8401597;28;19919;-69
2021/03/04 14:39:33;;;;;;;;;;;16.60;59.80;;;;;;8414303;28;19909;-68
2021/03/04 14:43:34;;;;;;;;;;;16.40;59.80;;;;;;8408868;28;20623;-69
2021/03/04 14:47:34;;;;;;;;;;;16.40;60.60;;;;;;8409646;28;19915;-68
2021/03/04 14:51:35;;;;;;;;;;;16.40;60.10;;;;;;8398496;28;19908;-68
2021/03/04 14:55:35;;;;;;;;;;;16.20;61.40;;;;;;8411583;28;19923;-69
2021/03/04 14:59:36;;;;;;;;;;;15.80;62.30;;;;;;8421693;28;19908;-69
2021/03/04 15:03:36;;;;;;;;;;;15.80;62.60;;;;;;8411782;28;19947;-68
2021/03/04 15:07:37;;;;;;;;;;;15.90;63.90;;;;;;8391303;28;20332;-71
2021/03/04 15:11:37;;;;;;;;;;;15.70;64.00;;;;;;8415331;28;20018;-71
2021/03/04 15:15:38;;;;;;;;;;;15.50;64.40;;;;;;8412597;28;19908;-71
2021/03/04 15:19:38;;;;;;;;;;;15.20;64.30;;;;;;8425344;28;19914;-71
2021/03/04 15:23:39;;;;;;;;;;;14.90;65.40;;;;;;8425372;28;19904;-71
2021/03/04 15:27:39;;;;;;;;;;;14.70;65.60;;;;;;8418072;28;20362;-71
2021/03/04 15:31:40;;;;;;;;;;;14.60;65.80;;;;;;8396592;28;19934;-71
2021/03/04 15:35:40;;;;;;;;;;;14.50;65.20;;;;;;8399019;28;19961;-71
2021/03/04 15:39:41;;;;;;;;;;;14.00;65.20;;;;;;8430906;28;19965;-71
2021/03/04 15:43:41;;;;;;;;;;;13.60;67.80;;;;;;8413174;28;19908;-71
2021/03/04 15:47:42;;;;;;;;;;;13.30;68.80;;;;;;8413463;28;19954;-71
2021/03/04 15:51:42;;;;;;;;;;;12.90;70.80;;;;;;8407111;28;19908;-71
2021/03/04 15:55:43;;;;;;;;;;;12.80;72.40;;;;;;8406357;28;20279;-72
2021/03/04 15:59:44;;;;;;;;;;;12.80;72.70;;;;;;8395396;28;19974;-74
2021/03/04 16:03:44;;;;;;;;;;;12.80;73.80;;;;;;8397017;28;19912;-71
2021/03/04 16:07:45;;;;;;;;;;;12.60;74.90;;;;;;8396186;28;19909;-71
2021/03/04 16:11:45;;;;;;;;;;;12.50;75.60;;;;;;8416749;28;19912;-72
2021/03/04 16:15:46;;;;;;;;;;;12.50;76.70;;;;;;8416730;28;21468;-71
2021/03/04 16:19:46;;;;;;;;;;;12.40;76.60;;;;;;8412715;28;20004;-72
2021/03/04 16:23:48;;;;;;;;;;;12.20;77.90;;;;;;8420616;28;19916;-72
2021/03/04 16:27:48;;;;;;;;;;;12.00;78.70;;;;;;8409811;28;20358;-70
2021/03/04 16:31:49;;;;;;;;;;;11.90;80.00;;;;;;8414678;28;19944;-72
2021/03/04 16:35:50;;;;;;;;;;;11.80;80.50;;;;;;8408145;28;19916;-72
2021/03/04 16:39:51;;;;;;;;;;;11.70;82.20;;;;;;8413447;28;19955;-71
2021/03/04 16:43:51;;;;;;;;;;;11.70;81.70;;;;;;8419128;28;19908;-69
2021/03/04 16:47:55;;;;;;;;;;;11.70;82.70;;;;;;8418024;28;19985;-69
2021/03/04 16:51:55;;;;;;;;;;;11.60;84.30;;;;;;8409769;28;19919;-72
2021/03/04 16:55:55;;;;;;;;;;;11.50;86.20;;;;;;8420282;28;20029;-72
2021/03/04 16:59:56;;;;;;;;;;;11.40;87.50;;;;;;8389812;22;19928;-71
2021/03/04 17:03:56;;;;;;;;;;;11.30;90.00;;;;;;8330401;28;19975;-70
2021/03/04 17:07:57;;;;;;;;;;;11.20;90.40;;;;;;8353324;28;19912;-71
2021/03/04 17:11:57;;;;;;;;;;;10.80;91.00;;;;;;8359769;28;20371;-70
2021/03/04 17:15:58;;;;;;;;;;;10.70;92.50;;;;;;8369663;28;19915;-70
2021/03/04 17:19:58;;;;;;;;;;;10.60;92.70;;;;;;8379913;28;20022;-68
2021/03/04 17:23:59;;;;;;;;;;;10.70;92.90;;;;;;8347356;28;20344;-69
2021/03/04 17:27:59;;;;;;;;;;;10.80;92.00;;;;;;8343211;28;19955;-68
2021/03/04 17:32:00;;;;;;;;;;;10.80;91.50;;;;;;8322729;28;19919;-68
2021/03/04 17:36:00;;;;;;;;;;;10.80;91.80;;;;;;8336279;28;20333;-69
2021/03/04 17:40:01;;;;;;;;;;;10.70;91.90;;;;;;8336229;28;19909;-68
2021/03/04 17:44:02;;;;;;;;;;;10.60;92.70;;;;;;8314353;28;20059;-68
2021/03/04 17:48:02;;;;;;;;;;;10.50;93.50;;;;;;8342292;28;19916;-70
2021/03/04 17:52:03;;;;;;;;;;;10.40;94.20;;;;;;8337266;28;19919;-69
2021/03/04 17:56:04;;;;;;;;;;;10.20;95.10;;;;;;8324751;28;20066;-70
2021/03/04 18:00:06;;;;;;;;;;;10.10;95.90;;;;;;8333676;28;19917;-70
2021/03/04 18:04:07;;;;;;;;;;;10.00;96.80;;;;;;8352893;28;19924;-68
2021/03/04 18:08:08;;;;;;;;;;;9.90;98.80;;;;;;8353402;28;19990;-70
2021/03/04 18:12:08;;;;;;;;;;;9.90;99.90;;;;;;8345081;28;19916;-69
2021/03/04 18:16:10;;;;;;;;;;;10.20;99.70;;;;;;8350437;28;19938;-69
2021/03/04 18:20:11;;;;;;;;;;;10.10;98.90;;;;;;8356955;28;19913;-70
2021/03/04 18:24:11;;;;;;;;;;;10.00;99.70;;;;;;8358983;28;20626;-69
2021/03/04 18:28:12;;;;;;;;;;;10.10;98.90;;;;;;8355871;28;19912;-70
2021/03/04 18:32:13;;;;;;;;;;;;;;;;;;8351870;28;19919;-69
2021/03/04 18:36:13;;;;;;;;;;;10.20;99.60;;;;;;8356297;28;19908;-70
2021/03/04 18:40:14;;;;;;;;;;;10.10;99.90;;;;;;8347661;28;19912;-70
2021/03/04 18:44:15;;;;;;;;;;;10.00;99.90;;;;;;8337973;28;19912;-68
2021/03/04 18:48:15;;;;;;;;;;;10.00;99.90;;;;;;8324283;28;19919;-69
2021/03/04 18:52:16;;;;;;;;;;;10.00;99.90;;;;;;8313771;28;19916;-70
2021/03/04 18:56:16;;;;;;;;;;;10.00;99.90;;;;;;8319768;28;20348;-71
2021/03/04 19:00:17;;;;;;;;;;;10.10;99.90;;;;;;8318670;28;19916;-70
2021/03/04 19:04:17;;;;;;;;;;;10.00;99.90;;;;;;8337975;28;19935;-70
2021/03/04 19:08:19;;;;;;;;;;;10.00;99.90;;;;;;8337652;28;19919;-70
2021/03/04 19:12:20;;;;;;;24.00;12.30;;;9.80;99.90;;;;;;8315512;28;20443;-69
2021/03/04 19:16:20;;;;;;;25.10;11.30;;;9.70;99.90;;;;;;8343651;28;20179;-69
2021/03/04 19:20:21;;;;;;;22.63;10.18;;;9.60;99.90;;;;;;8353949;28;20151;-69
2021/03/04 19:24:22;;;;;;;18.25;9.20;;;9.30;99.90;;;;;;8346541;28;20018;-69
2021/03/04 19:28:22;;;;;;;22.83;9.20;;;9.00;99.90;;;;;;8344886;28;20013;-69
2021/03/04 19:32:23;;;;;;;19.67;9.75;;;8.60;99.90;;;;;;8332421;28;20028;-68
2021/03/04 19:36:23;;;;;;;18.48;8.15;;;8.50;99.90;;;;;;8335374;28;20048;-68
2021/03/04 19:40:24;;;;;;;20.33;8.70;;;8.40;99.90;;;;;;8340441;28;20033;-68
2021/03/04 19:44:24;;;;;;;18.00;8.63;;;8.10;99.90;;;;;;8334563;28;20032;-68
2021/03/04 19:48:25;;;;;;;16.55;8.45;;;8.10;99.90;;;;;;8333013;28;20013;-69
2021/03/04 19:52:26;;;;;;;18.95;8.15;;;8.00;99.90;;;;;;8309915;28;20032;-69
2021/03/04 19:56:26;;;;;;;16.60;7.63;;;7.90;99.90;;;;;;8318472;28;20025;-68
2021/03/04 20:00:27;;;;;;;20.23;8.13;;;7.90;99.90;;;;;;8344984;28;20033;-68
2021/03/04 20:04:27;;;;;;;22.42;8.90;;;7.80;99.90;;;;;;8337033;28;20033;-68
2021/03/04 20:08:31;;;;;;;20.17;8.75;;;7.60;99.90;;;;;;8354679;28;20024;-68
2021/03/04 20:12:32;;;;;;;19.15;10.10;;;7.50;99.90;;;;;;8354207;28;20025;-69
2021/03/04 20:16:32;;;;;;;18.40;9.73;;;7.50;99.90;;;;;;8354477;28;20029;-68
2021/03/04 20:20:33;;;;;;;18.98;10.45;;;7.50;99.90;;;;;;8351870;28;20108;-69
2021/03/04 20:24:34;;;;;;;21.13;10.13;;;7.60;99.90;;;;;;8341159;28;20094;-70
2021/03/04 20:28:35;;;;;;;17.52;9.40;;;7.40;99.90;;;;;;8355152;28;20028;-69
2021/03/04 20:32:35;;;;;;;19.35;9.50;;;7.40;99.90;;;;;;8341521;28;20032;-69
2021/03/04 20:36:36;;;;;;;22.48;8.82;;;7.40;99.90;;;;;;8352970;28;20056;-69
2021/03/04 20:40:37;;;;;;;17.33;8.75;;;7.30;99.90;;;;;;8357475;28;20087;-69
2021/03/04 20:44:38;;;;;;;23.90;10.90;;;7.40;99.90;;;;;;8346094;28;20029;-69
2021/03/04 20:48:39;;;;;;;20.10;9.15;;;7.40;99.90;;;;;;8343263;28;20452;-69
2021/03/04 20:52:39;;;;;;;18.08;9.43;;;7.40;99.90;;;;;;8344502;28;20036;-69
2021/03/04 20:56:41;;;;;;;20.73;9.82;;;7.30;99.90;;;;;;8338073;28;20428;-69
2021/03/04 21:00:42;;;;;;;22.40;9.98;;;7.10;99.90;;;;;;8347268;28;20037;-69
2021/03/04 21:04:42;;;;;;;17.85;10.68;;;7.10;99.90;;;;;;8358341;28;20432;-70
2021/03/04 21:08:43;;;;;;;20.33;10.13;;;7.00;99.90;;;;;;8341112;28;20487;-69
2021/03/04 21:12:43;;;;;;;13.63;6.35;;;7.00;99.90;;;;;;8357077;28;20533;-69
2021/03/04 21:16:44;;;;;;;23.20;11.00;;;7.10;99.90;;;;;;8358688;28;20096;-69
2021/03/04 21:20:45;;;;;;;16.60;8.50;;;7.00;99.90;;;;;;8349703;28;20025;-69
2021/03/04 21:24:45;;;;;;;37.13;21.02;;;7.00;99.90;;;;;;8355286;28;20039;-68
2021/03/04 21:28:46;;;;;;;19.40;11.38;;;6.90;99.90;;;;;;8355573;28;20032;-68
2021/03/04 21:32:46;;;;;;;20.13;10.55;;;6.90;99.90;;;;;;8355990;28;20396;-69
2021/03/04 21:36:47;;;;;;;8.65;4.53;;;6.90;99.90;;;;;;8354601;28;20025;-68
2021/03/04 21:40:48;;;;;;;25.05;13.05;;;6.90;99.90;;;;;;8368315;28;20028;-69